createdAt,value
2022-12-17T00:00:41.335Z,1008.08
2022-12-17T00:01:41.266Z,1007.98
2022-12-17T00:02:41.365Z,1008.10
2022-12-17T00:03:42.049Z,1007.97
2022-12-17T00:04:41.275Z,1008.04
2022-12-17T00:05:41.196Z,1008.10
2022-12-17T00:06:41.203Z,1008.01
2022-12-17T00:07:41.188Z,1008.03
2022-12-17T00:08:41.175Z,1008.09
2022-12-17T00:09:42.615Z,1008.06
2022-12-17T00:10:41.180Z,1007.95
2022-12-17T00:11:41.178Z,1007.99
2022-12-17T00:12:41.141Z,1008.04
2022-12-17T00:13:41.181Z,1008.02
2022-12-17T00:14:41.180Z,1008.12
2022-12-17T00:15:41.159Z,1008.10
2022-12-17T00:16:41.247Z,1008.09
2022-12-17T00:17:41.105Z,1008.10
2022-12-17T00:18:41.080Z,1008.13
2022-12-17T00:19:41.057Z,1008.06
2022-12-17T00:20:41.064Z,1008.08
2022-12-17T00:21:41.053Z,1008.10
2022-12-17T00:22:41.055Z,1008.08
2022-12-17T00:23:41.009Z,1008.11
2022-12-17T00:24:41.000Z,1008.12
2022-12-17T00:25:41.020Z,1008.13
2022-12-17T00:26:40.975Z,1008.14
2022-12-17T00:27:40.961Z,1008.19
2022-12-17T00:28:40.992Z,1008.16
2022-12-17T00:29:40.946Z,1008.16
2022-12-17T00:30:40.942Z,1008.21
2022-12-17T00:31:40.997Z,1008.16
2022-12-17T00:32:40.929Z,1008.20
2022-12-17T00:33:40.926Z,1008.30
2022-12-17T00:34:40.904Z,1008.36
2022-12-17T00:35:40.877Z,1008.36
2022-12-17T00:36:40.878Z,1008.26
2022-12-17T00:37:40.885Z,1008.26
2022-12-17T00:38:40.875Z,1008.34
2022-12-17T00:39:40.833Z,1008.35
2022-12-17T00:40:40.836Z,1008.35
2022-12-17T00:41:40.812Z,1008.39
2022-12-17T00:42:40.827Z,1008.35
2022-12-17T00:43:40.803Z,1008.34
2022-12-17T00:44:40.814Z,1008.32
2022-12-17T00:45:40.851Z,1008.38
2022-12-17T00:46:40.834Z,1008.37
2022-12-17T00:47:40.776Z,1008.37
2022-12-17T00:48:40.785Z,1008.42
2022-12-17T00:49:40.745Z,1008.43
2022-12-17T00:50:40.716Z,1008.38
2022-12-17T00:51:40.783Z,1008.39
2022-12-17T00:52:40.705Z,1008.37
2022-12-17T00:53:40.722Z,1008.37
2022-12-17T00:54:40.679Z,1008.37
2022-12-17T00:55:40.690Z,1008.46
2022-12-17T00:56:40.650Z,1008.36
2022-12-17T00:57:40.640Z,1008.41
2022-12-17T00:58:40.648Z,1008.38
2022-12-17T00:59:40.654Z,1008.38
2022-12-17T01:00:40.691Z,1008.40
2022-12-17T01:01:40.882Z,1008.49
2022-12-17T01:02:40.739Z,1008.43
2022-12-17T01:03:40.576Z,1008.42
2022-12-17T01:04:40.594Z,1008.42
2022-12-17T01:05:40.586Z,1008.49
2022-12-17T01:06:40.546Z,1008.50
2022-12-17T01:07:40.536Z,1008.38
2022-12-17T01:08:40.521Z,1008.36
2022-12-17T01:09:40.549Z,1008.36
2022-12-17T01:10:40.515Z,1008.37
2022-12-17T01:11:40.493Z,1008.46
2022-12-17T01:12:40.482Z,1008.44
2022-12-17T01:13:40.470Z,1008.46
2022-12-17T01:14:40.457Z,1008.52
2022-12-17T01:15:40.483Z,1008.59
2022-12-17T01:16:40.529Z,1008.61
2022-12-17T01:17:40.439Z,1008.56
2022-12-17T01:18:40.421Z,1008.54
2022-12-17T01:19:40.427Z,1008.62
2022-12-17T01:20:40.419Z,1008.54
2022-12-17T01:21:40.392Z,1008.56
2022-12-17T01:22:40.372Z,1008.54
2022-12-17T01:23:40.385Z,1008.55
2022-12-17T01:24:40.393Z,1008.59
2022-12-17T01:25:40.344Z,1008.57
2022-12-17T01:26:40.329Z,1008.59
2022-12-17T01:27:40.325Z,1008.66
2022-12-17T01:28:40.312Z,1008.64
2022-12-17T01:29:40.314Z,1008.67
2022-12-17T01:30:40.310Z,1008.65
2022-12-17T01:31:40.371Z,1008.64
2022-12-17T01:32:40.313Z,1008.56
2022-12-17T01:33:40.264Z,1008.57
2022-12-17T01:34:40.268Z,1008.60
2022-12-17T01:35:40.273Z,1008.55
2022-12-17T01:36:40.238Z,1008.61
2022-12-17T01:37:40.216Z,1008.63
2022-12-17T01:38:40.233Z,1008.65
2022-12-17T01:39:40.212Z,1008.70
2022-12-17T01:40:40.184Z,1008.64
2022-12-17T01:41:40.176Z,1008.74
2022-12-17T01:42:40.178Z,1008.76
2022-12-17T01:43:40.194Z,1008.69
2022-12-17T01:44:40.138Z,1008.76
2022-12-17T01:45:40.200Z,1008.83
2022-12-17T01:46:40.116Z,1008.86
2022-12-17T01:47:40.116Z,1008.79
2022-12-17T01:48:40.139Z,1008.82
2022-12-17T01:49:40.088Z,1008.81
2022-12-17T01:50:40.074Z,1008.90
2022-12-17T01:51:40.081Z,1008.87
2022-12-17T01:52:40.100Z,1008.84
2022-12-17T01:53:40.051Z,1008.89
2022-12-17T01:54:40.072Z,1008.88
2022-12-17T01:55:40.020Z,1008.89
2022-12-17T01:56:40.040Z,1008.87
2022-12-17T01:57:40.012Z,1008.94
2022-12-17T01:58:39.989Z,1008.91
2022-12-17T01:59:40.007Z,1008.86
2022-12-17T02:00:40.057Z,1008.98
2022-12-17T02:01:40.189Z,1008.93
2022-12-17T02:02:40.119Z,1008.92
2022-12-17T02:03:39.943Z,1008.96
2022-12-17T02:04:39.951Z,1008.93
2022-12-17T02:05:39.976Z,1008.92
2022-12-17T02:06:39.931Z,1008.94
2022-12-17T02:07:40.002Z,1008.93
2022-12-17T02:08:39.908Z,1008.90
2022-12-17T02:09:39.881Z,1008.96
2022-12-17T02:10:39.888Z,1009.02
2022-12-17T02:11:39.862Z,1008.98
2022-12-17T02:12:39.837Z,1008.93
2022-12-17T02:13:39.888Z,1009.02
2022-12-17T02:14:39.816Z,1008.94
2022-12-17T02:15:39.808Z,1008.95
2022-12-17T02:16:39.861Z,1008.89
2022-12-17T02:17:39.810Z,1008.95
2022-12-17T02:18:39.809Z,1008.86
2022-12-17T02:19:39.768Z,1008.86
2022-12-17T02:20:39.758Z,1008.91
2022-12-17T02:21:39.741Z,1008.89
2022-12-17T02:22:39.731Z,1008.87
2022-12-17T02:23:39.802Z,1008.94
2022-12-17T02:24:39.758Z,1008.88
2022-12-17T02:25:39.705Z,1008.90
2022-12-17T02:26:39.698Z,1008.90
2022-12-17T02:27:39.722Z,1008.88
2022-12-17T02:28:39.667Z,1008.91
2022-12-17T02:29:39.662Z,1008.91
2022-12-17T02:30:39.649Z,1008.97
2022-12-17T02:31:39.708Z,1008.95
2022-12-17T02:32:39.626Z,1008.97
2022-12-17T02:33:39.640Z,1008.93
2022-12-17T02:34:39.614Z,1008.95
2022-12-17T02:35:39.607Z,1008.97
2022-12-17T02:36:39.582Z,1009.03
2022-12-17T02:37:39.569Z,1008.93
2022-12-17T02:38:39.598Z,1009.04
2022-12-17T02:39:39.557Z,1008.95
2022-12-17T02:40:39.565Z,1009.00
2022-12-17T02:41:39.574Z,1009.01
2022-12-17T02:42:39.541Z,1008.96
2022-12-17T02:43:39.512Z,1009.03
2022-12-17T02:44:39.514Z,1009.00
2022-12-17T02:45:39.555Z,1009.00
2022-12-17T02:46:39.477Z,1009.02
2022-12-17T02:47:39.488Z,1008.94
2022-12-17T02:48:39.459Z,1009.00
2022-12-17T02:49:39.439Z,1009.00
2022-12-17T02:50:39.460Z,1008.99
2022-12-17T02:51:39.418Z,1009.04
2022-12-17T02:52:39.419Z,1008.99
2022-12-17T02:53:39.410Z,1009.03
2022-12-17T02:54:39.421Z,1009.00
2022-12-17T02:55:39.402Z,1009.03
2022-12-17T02:56:39.388Z,1009.03
2022-12-17T02:57:43.593Z,1009.07
2022-12-17T02:58:39.369Z,1009.12
2022-12-17T02:59:39.343Z,1009.13
2022-12-17T03:00:39.382Z,1009.15
2022-12-17T03:01:39.470Z,1009.15
2022-12-17T03:02:39.401Z,1009.16
2022-12-17T03:03:39.825Z,1009.11
2022-12-17T03:04:39.288Z,1009.15
2022-12-17T03:05:46.509Z,1009.12
2022-12-17T03:06:40.316Z,1009.25
2022-12-17T03:07:39.245Z,1009.27
2022-12-17T03:08:39.245Z,1009.17
2022-12-17T03:09:39.232Z,1009.14
2022-12-17T03:10:39.228Z,1009.18
2022-12-17T03:11:39.231Z,1009.18
2022-12-17T03:12:39.220Z,1009.20
2022-12-17T03:13:39.186Z,1009.20
2022-12-17T03:14:39.183Z,1009.19
2022-12-17T03:15:39.220Z,1009.17
2022-12-17T03:16:39.236Z,1009.13
2022-12-17T03:17:39.170Z,1009.17
2022-12-17T03:18:39.146Z,1009.21
2022-12-17T03:19:39.125Z,1009.21
2022-12-17T03:20:39.120Z,1009.14
2022-12-17T03:21:39.112Z,1009.19
2022-12-17T03:22:39.119Z,1009.20
2022-12-17T03:23:39.449Z,1009.15
2022-12-17T03:24:39.085Z,1009.25
2022-12-17T03:25:39.053Z,1009.29
2022-12-17T03:26:39.049Z,1009.26
2022-12-17T03:27:39.036Z,1009.27
2022-12-17T03:28:39.085Z,1009.37
2022-12-17T03:29:39.043Z,1009.27
2022-12-17T03:30:39.328Z,1009.29
2022-12-17T03:31:39.060Z,1009.39
2022-12-17T03:32:38.983Z,1009.35
2022-12-17T03:33:39.297Z,1009.37
2022-12-17T03:34:38.968Z,1009.42
2022-12-17T03:35:38.979Z,1009.42
2022-12-17T03:36:38.989Z,1009.34
2022-12-17T03:37:38.941Z,1009.32
2022-12-17T03:38:38.918Z,1009.44
2022-12-17T03:39:38.903Z,1009.44
2022-12-17T03:40:38.902Z,1009.38
2022-12-17T03:41:38.905Z,1009.39
2022-12-17T03:42:38.892Z,1009.37
2022-12-17T03:43:38.970Z,1009.43
2022-12-17T03:44:38.869Z,1009.41
2022-12-17T03:45:38.921Z,1009.35
2022-12-17T03:46:38.836Z,1009.31
2022-12-17T03:47:38.857Z,1009.36
2022-12-17T03:48:38.812Z,1009.30
2022-12-17T03:49:38.803Z,1009.42
2022-12-17T03:50:38.787Z,1009.40
2022-12-17T03:51:38.777Z,1009.43
2022-12-17T03:52:38.784Z,1009.38
2022-12-17T03:53:38.987Z,1009.40
2022-12-17T03:54:38.745Z,1009.43
2022-12-17T03:55:38.736Z,1009.53
2022-12-17T03:56:38.726Z,1009.51
2022-12-17T03:57:38.779Z,1009.47
2022-12-17T03:58:38.715Z,1009.50
2022-12-17T03:59:38.691Z,1009.47
2022-12-17T04:00:38.701Z,1009.53
2022-12-17T04:01:38.785Z,1009.50
2022-12-17T04:02:38.999Z,1009.57
2022-12-17T04:03:39.379Z,1009.49
2022-12-17T04:04:38.655Z,1009.57
2022-12-17T04:05:38.624Z,1009.60
2022-12-17T04:06:38.619Z,1009.57
2022-12-17T04:07:38.615Z,1009.65
2022-12-17T04:08:38.630Z,1009.60
2022-12-17T04:09:38.594Z,1009.62
2022-12-17T04:10:38.588Z,1009.61
2022-12-17T04:11:38.566Z,1009.65
2022-12-17T04:12:38.551Z,1009.64
2022-12-17T04:13:41.058Z,1009.64
2022-12-17T04:14:38.531Z,1009.77
2022-12-17T04:15:38.640Z,1009.64
2022-12-17T04:16:38.530Z,1009.64
2022-12-17T04:17:38.500Z,1009.71
2022-12-17T04:18:38.537Z,1009.68
2022-12-17T04:19:38.490Z,1009.64
2022-12-17T04:20:38.470Z,1009.73
2022-12-17T04:21:38.471Z,1009.71
2022-12-17T04:22:38.460Z,1009.77
2022-12-17T04:23:38.812Z,1009.72
2022-12-17T04:24:38.429Z,1009.66
2022-12-17T04:25:38.409Z,1009.73
2022-12-17T04:26:38.445Z,1009.72
2022-12-17T04:27:38.420Z,1009.74
2022-12-17T04:28:38.424Z,1009.74
2022-12-17T04:29:38.404Z,1009.78
2022-12-17T04:30:38.414Z,1009.78
2022-12-17T04:31:38.395Z,1009.77
2022-12-17T04:32:38.360Z,1009.79
2022-12-17T04:33:38.974Z,1009.78
2022-12-17T04:34:38.348Z,1009.85
2022-12-17T04:35:38.355Z,1009.85
2022-12-17T04:36:38.296Z,1009.90
2022-12-17T04:37:38.282Z,1009.90
2022-12-17T04:38:38.272Z,1009.90
2022-12-17T04:39:38.284Z,1009.91
2022-12-17T04:40:38.249Z,1009.91
2022-12-17T04:41:38.256Z,1009.92
2022-12-17T04:42:38.235Z,1009.98
2022-12-17T04:43:38.830Z,1010.01
2022-12-17T04:44:38.271Z,1010.03
2022-12-17T04:45:38.238Z,1010.03
2022-12-17T04:46:38.286Z,1010.06
2022-12-17T04:47:38.173Z,1010.06
2022-12-17T04:48:38.183Z,1010.07
2022-12-17T04:49:38.166Z,1010.07
2022-12-17T04:50:38.147Z,1010.10
2022-12-17T04:51:38.178Z,1010.07
2022-12-17T04:52:38.150Z,1010.16
2022-12-17T04:53:38.574Z,1010.17
2022-12-17T04:54:38.115Z,1010.07
2022-12-17T04:55:38.091Z,1010.13
2022-12-17T04:56:38.105Z,1010.15
2022-12-17T04:57:38.112Z,1010.16
2022-12-17T04:58:38.067Z,1010.17
2022-12-17T04:59:38.047Z,1010.19
2022-12-17T05:00:38.054Z,1010.21
2022-12-17T05:01:38.081Z,1010.18
2022-12-17T05:02:42.479Z,1010.17
2022-12-17T05:03:38.400Z,1010.22
2022-12-17T05:04:38.008Z,1010.16
2022-12-17T05:05:37.994Z,1010.18
2022-12-17T05:06:38.003Z,1010.21
2022-12-17T05:07:37.963Z,1010.25
2022-12-17T05:08:41.379Z,1010.21
2022-12-17T05:09:37.980Z,1010.20
2022-12-17T05:10:37.931Z,1010.23
2022-12-17T05:11:37.947Z,1010.26
2022-12-17T05:12:37.921Z,1010.25
2022-12-17T05:13:38.348Z,1010.27
2022-12-17T05:14:37.899Z,1010.23
2022-12-17T05:15:37.952Z,1010.26
2022-12-17T05:16:37.876Z,1010.25
2022-12-17T05:17:37.885Z,1010.25
2022-12-17T05:18:37.857Z,1010.30
2022-12-17T05:19:37.863Z,1010.26
2022-12-17T05:20:37.870Z,1010.24
2022-12-17T05:21:37.812Z,1010.24
2022-12-17T05:22:37.807Z,1010.24
2022-12-17T05:23:38.128Z,1010.27
2022-12-17T05:24:37.781Z,1010.27
2022-12-17T05:25:37.767Z,1010.33
2022-12-17T05:26:37.765Z,1010.33
2022-12-17T05:27:37.781Z,1010.34
2022-12-17T05:28:37.737Z,1010.37
2022-12-17T05:29:37.767Z,1010.42
2022-12-17T05:30:37.747Z,1010.45
2022-12-17T05:31:37.777Z,1010.46
2022-12-17T05:32:37.704Z,1010.47
2022-12-17T05:33:38.118Z,1010.50
2022-12-17T05:34:37.672Z,1010.49
2022-12-17T05:35:37.697Z,1010.46
2022-12-17T05:36:37.701Z,1010.48
2022-12-17T05:37:37.641Z,1010.44
2022-12-17T05:38:37.637Z,1010.55
2022-12-17T05:39:37.621Z,1010.47
2022-12-17T05:40:37.612Z,1010.48
2022-12-17T05:41:37.664Z,1010.56
2022-12-17T05:42:37.588Z,1010.57
2022-12-17T05:43:38.074Z,1010.51
2022-12-17T05:44:37.580Z,1010.58
2022-12-17T05:45:37.554Z,1010.62
2022-12-17T05:46:37.657Z,1010.59
2022-12-17T05:47:37.597Z,1010.67
2022-12-17T05:48:37.558Z,1010.63
2022-12-17T05:49:37.545Z,1010.58
2022-12-17T05:50:37.510Z,1010.69
2022-12-17T05:51:39.060Z,1010.70
2022-12-17T05:52:37.507Z,1010.73
2022-12-17T05:53:38.466Z,1010.76
2022-12-17T05:54:37.468Z,1010.74
2022-12-17T05:55:37.456Z,1010.73
2022-12-17T05:56:37.448Z,1010.77
2022-12-17T05:57:37.429Z,1010.70
2022-12-17T05:58:37.434Z,1010.70
2022-12-17T05:59:37.422Z,1010.74
2022-12-17T06:00:37.395Z,1010.74
2022-12-17T06:01:37.460Z,1010.71
2022-12-17T06:02:37.545Z,1010.75
2022-12-17T06:03:37.886Z,1010.77
2022-12-17T06:04:37.382Z,1010.73
2022-12-17T06:05:37.357Z,1010.74
2022-12-17T06:06:37.334Z,1010.78
2022-12-17T06:07:37.330Z,1010.85
2022-12-17T06:08:37.363Z,1010.85
2022-12-17T06:09:37.332Z,1010.82
2022-12-17T06:10:37.298Z,1010.81
2022-12-17T06:11:37.325Z,1010.89
2022-12-17T06:12:37.266Z,1010.85
2022-12-17T06:13:37.768Z,1010.93
2022-12-17T06:14:37.246Z,1010.90
2022-12-17T06:15:37.272Z,1010.96
2022-12-17T06:16:37.308Z,1011.02
2022-12-17T06:17:37.230Z,1010.96
2022-12-17T06:18:37.207Z,1011.09
2022-12-17T06:19:37.201Z,1011.01
2022-12-17T06:20:37.216Z,1011.06
2022-12-17T06:21:37.177Z,1010.98
2022-12-17T06:22:37.158Z,1011.04
2022-12-17T06:23:37.609Z,1010.98
2022-12-17T06:24:40.197Z,1011.02
2022-12-17T06:25:38.156Z,1011.01
2022-12-17T06:26:37.115Z,1011.00
2022-12-17T06:27:37.110Z,1011.00
2022-12-17T06:28:37.095Z,1011.00
2022-12-17T06:29:37.112Z,1011.07
2022-12-17T06:30:37.088Z,1011.06
2022-12-17T06:31:37.110Z,1011.02
2022-12-17T06:32:37.050Z,1011.06
2022-12-17T06:33:37.305Z,1011.09
2022-12-17T06:34:37.031Z,1011.09
2022-12-17T06:35:37.055Z,1011.09
2022-12-17T06:36:37.017Z,1011.08
2022-12-17T06:37:37.013Z,1011.17
2022-12-17T06:38:37.011Z,1011.17
2022-12-17T06:39:36.978Z,1011.12
2022-12-17T06:40:36.985Z,1011.13
2022-12-17T06:41:36.988Z,1011.09
2022-12-17T06:42:36.951Z,1011.16
2022-12-17T06:43:37.188Z,1011.10
2022-12-17T06:44:36.972Z,1011.21
2022-12-17T06:45:36.914Z,1011.15
2022-12-17T06:46:36.990Z,1011.18
2022-12-17T06:47:36.902Z,1011.20
2022-12-17T06:48:36.902Z,1011.21
2022-12-17T06:49:36.881Z,1011.23
2022-12-17T06:50:36.903Z,1011.20
2022-12-17T06:51:36.877Z,1011.24
2022-12-17T06:52:36.848Z,1011.25
2022-12-17T06:53:37.363Z,1011.20
2022-12-17T06:54:36.825Z,1011.19
2022-12-17T06:55:36.820Z,1011.22
2022-12-17T06:56:36.885Z,1011.27
2022-12-17T06:57:41.166Z,1011.30
2022-12-17T06:58:36.783Z,1011.25
2022-12-17T06:59:36.800Z,1011.29
2022-12-17T07:00:36.871Z,1011.40
2022-12-17T07:01:36.977Z,1011.34
2022-12-17T07:02:36.934Z,1011.42
2022-12-17T07:03:37.115Z,1011.41
2022-12-17T07:04:36.724Z,1011.45
2022-12-17T07:05:36.730Z,1011.34
2022-12-17T07:06:36.706Z,1011.35
2022-12-17T07:07:36.713Z,1011.36
2022-12-17T07:08:36.672Z,1011.40
2022-12-17T07:09:36.661Z,1011.45
2022-12-17T07:10:36.663Z,1011.44
2022-12-17T07:11:36.664Z,1011.44
2022-12-17T07:12:36.675Z,1011.47
2022-12-17T07:13:36.953Z,1011.43
2022-12-17T07:14:36.604Z,1011.47
2022-12-17T07:15:36.595Z,1011.52
2022-12-17T07:16:36.695Z,1011.54
2022-12-17T07:17:36.571Z,1011.48
2022-12-17T07:18:36.696Z,1011.52
2022-12-17T07:19:36.556Z,1011.60
2022-12-17T07:20:36.583Z,1011.51
2022-12-17T07:21:36.836Z,1011.54
2022-12-17T07:22:36.519Z,1011.64
2022-12-17T07:23:36.899Z,1011.61
2022-12-17T07:24:36.543Z,1011.58
2022-12-17T07:25:37.826Z,1011.62
2022-12-17T07:26:36.493Z,1011.58
2022-12-17T07:27:36.465Z,1011.60
2022-12-17T07:28:36.474Z,1011.63
2022-12-17T07:29:36.478Z,1011.63
2022-12-17T07:30:36.465Z,1011.58
2022-12-17T07:31:36.462Z,1011.60
2022-12-17T07:32:36.423Z,1011.69
2022-12-17T07:33:36.974Z,1011.66
2022-12-17T07:34:36.420Z,1011.70
2022-12-17T07:35:36.423Z,1011.76
2022-12-17T07:36:36.399Z,1011.70
2022-12-17T07:37:36.358Z,1011.82
2022-12-17T07:38:36.390Z,1011.74
2022-12-17T07:39:36.344Z,1011.81
2022-12-17T07:40:36.328Z,1011.84
2022-12-17T07:41:36.327Z,1011.81
2022-12-17T07:42:36.344Z,1011.81
2022-12-17T07:43:36.666Z,1011.75
2022-12-17T07:44:36.313Z,1011.80
2022-12-17T07:45:36.311Z,1011.84
2022-12-17T07:46:36.260Z,1011.91
2022-12-17T07:47:36.301Z,1011.93
2022-12-17T07:48:36.278Z,1012.00
2022-12-17T07:49:36.231Z,1011.97
2022-12-17T07:50:36.217Z,1011.98
2022-12-17T07:51:36.215Z,1011.98
2022-12-17T07:52:36.220Z,1012.01
2022-12-17T07:53:36.491Z,1012.06
2022-12-17T07:54:36.194Z,1012.03
2022-12-17T07:55:36.205Z,1012.11
2022-12-17T07:56:36.158Z,1012.10
2022-12-17T07:57:36.208Z,1012.08
2022-12-17T07:58:36.134Z,1012.04
2022-12-17T07:59:36.130Z,1012.06
2022-12-17T08:00:36.135Z,1012.10
2022-12-17T08:01:36.212Z,1012.12
2022-12-17T08:02:36.373Z,1012.10
2022-12-17T08:03:36.623Z,1012.06
2022-12-17T08:04:36.070Z,1012.15
2022-12-17T08:05:36.076Z,1012.18
2022-12-17T08:06:36.046Z,1012.19
2022-12-17T08:07:36.041Z,1012.31
2022-12-17T08:08:36.084Z,1012.29
2022-12-17T08:09:36.027Z,1012.33
2022-12-17T08:10:36.039Z,1012.32
2022-12-17T08:11:36.007Z,1012.33
2022-12-17T08:12:36.003Z,1012.40
2022-12-17T08:13:36.425Z,1012.39
2022-12-17T08:14:35.984Z,1012.38
2022-12-17T08:15:35.976Z,1012.46
2022-12-17T08:16:36.068Z,1012.43
2022-12-17T08:17:35.942Z,1012.52
2022-12-17T08:18:35.918Z,1012.45
2022-12-17T08:19:35.911Z,1012.44
2022-12-17T08:20:35.903Z,1012.49
2022-12-17T08:21:35.903Z,1012.51
2022-12-17T08:22:35.912Z,1012.57
2022-12-17T08:23:36.247Z,1012.57
2022-12-17T08:24:35.854Z,1012.62
2022-12-17T08:25:35.849Z,1012.63
2022-12-17T08:26:35.841Z,1012.60
2022-12-17T08:27:35.853Z,1012.67
2022-12-17T08:28:50.468Z,1012.67
2022-12-17T08:29:36.802Z,1012.71
2022-12-17T08:30:35.924Z,1012.72
2022-12-17T08:31:35.784Z,1012.79
2022-12-17T08:32:35.815Z,1012.78
2022-12-17T08:33:36.172Z,1012.79
2022-12-17T08:34:35.748Z,1012.77
2022-12-17T08:35:35.770Z,1012.79
2022-12-17T08:36:35.746Z,1012.81
2022-12-17T08:37:35.760Z,1012.86
2022-12-17T08:38:35.707Z,1012.86
2022-12-17T08:39:35.697Z,1012.91
2022-12-17T08:40:35.718Z,1012.97
2022-12-17T08:41:35.679Z,1012.87
2022-12-17T08:42:35.661Z,1012.94
2022-12-17T08:43:36.177Z,1012.94
2022-12-17T08:44:35.656Z,1012.90
2022-12-17T08:45:35.707Z,1012.92
2022-12-17T08:46:35.660Z,1012.94
2022-12-17T08:47:35.625Z,1012.92
2022-12-17T08:48:35.614Z,1012.98
2022-12-17T08:49:35.593Z,1012.89
2022-12-17T08:50:35.580Z,1012.90
2022-12-17T08:51:35.609Z,1012.96
2022-12-17T08:52:35.556Z,1013.00
2022-12-17T08:53:35.668Z,1012.96
2022-12-17T08:54:35.570Z,1013.03
2022-12-17T08:55:35.570Z,1013.02
2022-12-17T08:56:35.521Z,1012.98
2022-12-17T08:57:35.552Z,1012.93
2022-12-17T08:58:35.526Z,1012.92
2022-12-17T08:59:35.505Z,1012.99
2022-12-17T09:00:35.481Z,1013.00
2022-12-17T09:01:35.698Z,1013.01
2022-12-17T09:02:35.671Z,1012.99
2022-12-17T09:03:35.968Z,1013.03
2022-12-17T09:04:35.469Z,1013.04
2022-12-17T09:05:35.455Z,1013.03
2022-12-17T09:06:39.145Z,1012.99
2022-12-17T09:07:35.399Z,1012.99
2022-12-17T09:08:35.450Z,1013.00
2022-12-17T09:09:35.374Z,1013.00
2022-12-17T09:10:35.483Z,1013.00
2022-12-17T09:11:35.414Z,1013.08
2022-12-17T09:12:35.342Z,1012.97
2022-12-17T09:13:35.716Z,1013.02
2022-12-17T09:14:35.332Z,1013.03
2022-12-17T09:15:35.309Z,1013.09
2022-12-17T09:16:35.334Z,1013.12
2022-12-17T09:17:35.344Z,1013.04
2022-12-17T09:18:35.276Z,1013.11
2022-12-17T09:19:35.335Z,1013.10
2022-12-17T09:20:35.279Z,1013.08
2022-12-17T09:21:35.247Z,1013.15
2022-12-17T09:22:35.263Z,1013.09
2022-12-17T09:23:35.701Z,1013.16
2022-12-17T09:24:35.214Z,1013.17
2022-12-17T09:25:35.220Z,1013.13
2022-12-17T09:26:35.200Z,1013.13
2022-12-17T09:27:35.180Z,1013.13
2022-12-17T09:28:35.194Z,1013.16
2022-12-17T09:29:35.169Z,1013.14
2022-12-17T09:30:35.256Z,1013.22
2022-12-17T09:31:37.437Z,1013.17
2022-12-17T09:32:35.149Z,1013.14
2022-12-17T09:33:35.545Z,1013.12
2022-12-17T09:34:35.129Z,1013.09
2022-12-17T09:35:35.112Z,1013.10
2022-12-17T09:36:35.137Z,1013.08
2022-12-17T09:37:35.101Z,1013.10
2022-12-17T09:38:35.070Z,1013.21
2022-12-17T09:39:35.052Z,1013.05
2022-12-17T09:40:35.060Z,1013.08
2022-12-17T09:41:35.030Z,1013.11
2022-12-17T09:42:35.051Z,1013.13
2022-12-17T09:43:35.323Z,1013.17
2022-12-17T09:44:35.028Z,1013.14
2022-12-17T09:45:34.988Z,1013.16
2022-12-17T09:46:35.088Z,1013.19
2022-12-17T09:47:34.994Z,1013.19
2022-12-17T09:48:34.952Z,1013.18
2022-12-17T09:49:34.966Z,1013.20
2022-12-17T09:50:34.965Z,1013.20
2022-12-17T09:51:34.965Z,1013.25
2022-12-17T09:52:34.935Z,1013.23
2022-12-17T09:53:35.294Z,1013.25
2022-12-17T09:54:34.891Z,1013.32
2022-12-17T09:55:34.903Z,1013.28
2022-12-17T09:56:34.876Z,1013.30
2022-12-17T09:57:34.859Z,1013.32
2022-12-17T09:58:34.849Z,1013.28
2022-12-17T09:59:34.884Z,1013.27
2022-12-17T10:00:34.861Z,1013.28
2022-12-17T10:01:34.943Z,1013.28
2022-12-17T10:02:35.039Z,1013.29
2022-12-17T10:03:35.316Z,1013.28
2022-12-17T10:04:34.786Z,1013.28
2022-12-17T10:05:34.811Z,1013.25
2022-12-17T10:06:34.779Z,1013.28
2022-12-17T10:07:34.758Z,1013.23
2022-12-17T10:08:34.755Z,1013.35
2022-12-17T10:09:34.734Z,1013.28
2022-12-17T10:10:34.741Z,1013.25
2022-12-17T10:11:35.019Z,1013.34
2022-12-17T10:12:34.757Z,1013.32
2022-12-17T10:13:35.140Z,1013.25
2022-12-17T10:14:34.678Z,1013.24
2022-12-17T10:15:34.768Z,1013.24
2022-12-17T10:16:34.668Z,1013.21
2022-12-17T10:17:34.647Z,1013.27
2022-12-17T10:18:34.676Z,1013.24
2022-12-17T10:19:34.643Z,1013.26
2022-12-17T10:20:34.611Z,1013.24
2022-12-17T10:21:34.639Z,1013.26
2022-12-17T10:22:38.096Z,1013.29
2022-12-17T10:23:35.000Z,1013.31
2022-12-17T10:24:34.590Z,1013.38
2022-12-17T10:25:34.560Z,1013.34
2022-12-17T10:26:34.545Z,1013.29
2022-12-17T10:27:34.543Z,1013.37
2022-12-17T10:28:34.534Z,1013.33
2022-12-17T10:29:34.545Z,1013.33
2022-12-17T10:30:34.557Z,1013.34
2022-12-17T10:31:34.605Z,1013.34
2022-12-17T10:32:34.506Z,1013.35
2022-12-17T10:33:34.860Z,1013.44
2022-12-17T10:34:34.487Z,1013.48
2022-12-17T10:35:34.449Z,1013.42
2022-12-17T10:36:34.459Z,1013.41
2022-12-17T10:37:34.443Z,1013.47
2022-12-17T10:38:34.473Z,1013.45
2022-12-17T10:39:34.415Z,1013.49
2022-12-17T10:40:34.523Z,1013.40
2022-12-17T10:41:34.389Z,1013.47
2022-12-17T10:42:34.687Z,1013.47
2022-12-17T10:43:34.796Z,1013.47
2022-12-17T10:44:34.389Z,1013.38
2022-12-17T10:45:34.350Z,1013.33
2022-12-17T10:46:34.441Z,1013.42
2022-12-17T10:47:34.351Z,1013.40
2022-12-17T10:48:34.403Z,1013.44
2022-12-17T10:49:34.330Z,1013.52
2022-12-17T10:50:34.292Z,1013.52
2022-12-17T10:51:34.275Z,1013.50
2022-12-17T10:52:34.267Z,1013.51
2022-12-17T10:53:34.787Z,1013.51
2022-12-17T10:54:34.263Z,1013.53
2022-12-17T10:55:34.249Z,1013.56
2022-12-17T10:56:34.249Z,1013.52
2022-12-17T10:57:34.228Z,1013.53
2022-12-17T10:58:34.202Z,1013.48
2022-12-17T10:59:34.223Z,1013.49
2022-12-17T11:00:34.244Z,1013.55
2022-12-17T11:01:34.320Z,1013.54
2022-12-17T11:02:34.395Z,1013.56
2022-12-17T11:03:34.625Z,1013.60
2022-12-17T11:04:34.157Z,1013.65
2022-12-17T11:05:34.138Z,1013.61
2022-12-17T11:06:37.500Z,1013.64
2022-12-17T11:07:35.113Z,1013.71
2022-12-17T11:08:34.415Z,1013.66
2022-12-17T11:09:34.112Z,1013.75
2022-12-17T11:10:34.099Z,1013.85
2022-12-17T11:11:34.084Z,1013.77
2022-12-17T11:12:34.073Z,1013.79
2022-12-17T11:13:34.585Z,1013.82
2022-12-17T11:14:34.058Z,1013.80
2022-12-17T11:15:34.184Z,1013.84
2022-12-17T11:16:34.057Z,1013.86
2022-12-17T11:17:33.997Z,1013.79
2022-12-17T11:18:34.013Z,1013.85
2022-12-17T11:19:34.008Z,1013.80
2022-12-17T11:20:34.070Z,1013.81
2022-12-17T11:21:33.999Z,1013.79
2022-12-17T11:22:33.945Z,1013.88
2022-12-17T11:23:34.261Z,1013.89
2022-12-17T11:24:33.929Z,1013.80
2022-12-17T11:25:33.911Z,1013.84
2022-12-17T11:26:33.996Z,1013.88
2022-12-17T11:27:33.916Z,1013.84
2022-12-17T11:28:33.899Z,1013.90
2022-12-17T11:29:33.899Z,1013.84
2022-12-17T11:30:33.906Z,1013.85
2022-12-17T11:31:33.936Z,1013.83
2022-12-17T11:32:33.931Z,1013.84
2022-12-17T11:33:34.058Z,1013.85
2022-12-17T11:34:33.819Z,1013.78
2022-12-17T11:35:33.803Z,1013.84
2022-12-17T11:36:38.774Z,1013.90
2022-12-17T11:37:34.809Z,1013.86
2022-12-17T11:38:34.133Z,1013.87
2022-12-17T11:39:33.783Z,1013.88
2022-12-17T11:40:33.757Z,1013.83
2022-12-17T11:41:33.770Z,1013.81
2022-12-17T11:42:33.744Z,1013.87
2022-12-17T11:43:33.725Z,1013.88
2022-12-17T11:44:33.818Z,1013.93
2022-12-17T11:45:33.696Z,1013.85
2022-12-17T11:46:33.746Z,1013.87
2022-12-17T11:47:33.676Z,1013.91
2022-12-17T11:48:34.026Z,1013.88
2022-12-17T11:49:33.696Z,1013.90
2022-12-17T11:50:33.692Z,1013.82
2022-12-17T11:51:33.634Z,1013.88
2022-12-17T11:52:33.624Z,1013.86
2022-12-17T11:53:33.613Z,1013.82
2022-12-17T11:54:33.630Z,1013.89
2022-12-17T11:55:33.593Z,1013.85
2022-12-17T11:56:33.632Z,1013.86
2022-12-17T11:57:33.616Z,1013.86
2022-12-17T11:58:33.697Z,1013.90
2022-12-17T11:59:33.574Z,1013.87
2022-12-17T12:00:33.629Z,1013.86
2022-12-17T12:01:33.591Z,1013.91
2022-12-17T12:02:33.590Z,1013.91
2022-12-17T12:03:33.603Z,1013.89
2022-12-17T12:04:33.493Z,1013.83
2022-12-17T12:05:33.482Z,1013.86